createdAt,value
2022-08-09T00:00:00.209Z,4.53
2022-08-09T00:06:19.590Z,4.93
2022-08-09T00:12:26.377Z,5.95
2022-08-09T00:18:38.140Z,5.55
2022-08-09T00:24:40.296Z,5.15
2022-08-09T00:30:43.172Z,5.72
2022-08-09T00:36:45.577Z,5.78
2022-08-09T00:44:16.132Z,5.90
2022-08-09T00:49:11.101Z,6.30
2022-08-09T00:55:16.741Z,5.63
2022-08-09T01:01:44.818Z,5.55
2022-08-09T01:08:05.347Z,5.77
2022-08-09T01:14:27.291Z,6.22
2022-08-09T01:21:10.013Z,6.60
2022-08-09T01:27:13.595Z,6.53
2022-08-09T01:33:17.456Z,7.00
2022-08-09T01:39:23.152Z,6.78
2022-08-09T01:45:27.121Z,5.97
2022-08-09T01:51:33.335Z,6.35
2022-08-09T01:57:44.299Z,6.78
2022-08-09T02:03:49.774Z,7.03
2022-08-09T02:10:05.656Z,7.10
2022-08-09T02:16:12.312Z,6.93
2022-08-09T02:22:27.299Z,7.28
2022-08-09T02:28:39.348Z,7.03
2022-08-09T02:34:55.671Z,5.45
2022-08-09T02:41:07.625Z,6.75
2022-08-09T02:47:12.785Z,6.72
2022-08-09T02:53:26.518Z,6.18
2022-08-09T02:59:36.414Z,6.70
2022-08-09T03:05:40.316Z,6.85
2022-08-09T03:12:06.396Z,6.22
2022-08-09T03:18:09.672Z,6.93
2022-08-09T03:24:12.926Z,6.18
2022-08-09T03:30:36.652Z,6.57
2022-08-09T03:36:39.439Z,7.20
2022-08-09T03:42:42.917Z,6.57
2022-08-09T03:48:51.815Z,6.72
2022-08-09T03:54:56.671Z,6.65
2022-08-09T04:00:59.697Z,7.05
2022-08-09T04:07:04.603Z,6.38
2022-08-09T04:13:11.587Z,6.65
2022-08-09T04:19:15.967Z,7.15
2022-08-09T04:25:36.856Z,6.93
2022-08-09T04:31:46.919Z,6.22
2022-08-09T04:37:50.263Z,7.10
2022-08-09T04:44:05.253Z,7.50
2022-08-09T04:50:08.866Z,6.55
2022-08-09T04:56:12.170Z,7.32
2022-08-09T05:02:30.638Z,7.45
2022-08-09T05:08:35.090Z,6.22
2022-08-09T05:14:38.127Z,6.80
2022-08-09T05:20:43.836Z,6.72
2022-08-09T05:26:47.821Z,6.68
2022-08-09T05:32:50.675Z,10.55
2022-08-09T05:38:53.353Z,6.63
2022-08-09T05:44:56.388Z,6.38
2022-08-09T05:51:41.547Z,5.85
2022-08-09T05:57:20.881Z,8.55
2022-08-09T06:03:44.016Z,8.82
2022-08-09T06:10:02.812Z,6.07
2022-08-09T06:16:05.535Z,4.55
2022-08-09T06:22:15.217Z,4.40
2022-08-09T06:28:17.845Z,4.90
2022-08-09T06:34:23.470Z,4.70
2022-08-09T06:40:28.652Z,4.43
2022-08-09T06:46:40.090Z,3.97
2022-08-09T06:52:48.532Z,4.25
2022-08-09T07:00:50.758Z,4.05
2022-08-09T07:05:12.997Z,4.55
2022-08-09T07:11:17.560Z,4.47
2022-08-09T07:17:25.731Z,3.85
2022-08-09T07:23:46.742Z,4.43
2022-08-09T07:30:00.785Z,6.22
2022-08-09T07:36:03.782Z,3.97
2022-08-09T07:42:07.927Z,4.05
2022-08-09T07:48:25.311Z,4.00
2022-08-09T07:54:32.592Z,3.47
2022-08-09T08:00:36.193Z,3.80
2022-08-09T08:06:55.902Z,4.30
2022-08-09T08:12:58.577Z,3.80
2022-08-09T08:19:02.823Z,5.45
2022-08-09T08:25:13.199Z,3.75
2022-08-09T08:31:19.403Z,5.50
2022-08-09T08:37:21.842Z,3.92
2022-08-09T08:43:28.096Z,3.58
2022-08-09T08:49:46.301Z,3.65
2022-08-09T08:55:52.351Z,4.05
2022-08-09T09:01:57.329Z,3.45
2022-08-09T09:08:03.110Z,3.05
2022-08-09T09:14:15.671Z,4.03
2022-08-09T09:20:18.135Z,3.83
2022-08-09T09:26:26.202Z,3.40
2022-08-09T09:32:35.192Z,3.65
2022-08-09T09:38:57.212Z,3.55
2022-08-09T09:45:01.478Z,4.40
2022-08-09T09:51:07.035Z,4.13
2022-08-09T09:58:03.292Z,3.90
2022-08-09T10:03:43.632Z,3.80
2022-08-09T10:09:54.809Z,3.33
2022-08-09T10:16:54.661Z,4.00
2022-08-09T10:22:33.048Z,4.00
2022-08-09T10:28:37.620Z,3.63
2022-08-09T10:34:40.729Z,3.45
2022-08-09T10:40:50.291Z,3.33
2022-08-09T10:46:57.689Z,3.10
2022-08-09T10:53:21.294Z,3.40
2022-08-09T10:59:31.103Z,3.45
2022-08-09T11:05:33.985Z,2.60
2022-08-09T11:11:59.997Z,2.50
2022-08-09T11:18:04.084Z,2.30
2022-08-09T11:24:06.486Z,2.45
2022-08-09T11:30:32.049Z,3.22
2022-08-09T11:36:43.379Z,3.25
2022-08-09T11:42:52.775Z,2.20
2022-08-09T11:48:57.430Z,1.95
2022-08-09T11:55:34.918Z,2.17
2022-08-09T12:02:16.359Z,2.75
2022-08-09T12:08:21.834Z,3.08
2022-08-09T12:14:36.910Z,3.17
2022-08-09T12:20:44.004Z,3.03
2022-08-09T12:29:13.570Z,2.58
2022-08-09T12:33:20.161Z,2.67
2022-08-09T12:39:24.054Z,2.08
2022-08-09T12:45:34.534Z,2.13
2022-08-09T12:52:00.917Z,1.90
2022-08-09T12:58:24.141Z,2.50
2022-08-09T13:04:36.294Z,2.40
2022-08-09T13:10:52.098Z,2.47
2022-08-09T13:17:01.119Z,2.88
2022-08-09T13:24:06.426Z,4.40
2022-08-09T13:29:28.664Z,3.08
2022-08-09T13:36:41.604Z,2.38
2022-08-09T13:42:15.404Z,2.90
2022-08-09T13:48:18.192Z,2.25
2022-08-09T13:54:20.361Z,2.95
2022-08-09T14:00:29.611Z,2.10
2022-08-09T14:06:33.238Z,2.38
2022-08-09T14:12:37.347Z,2.25
2022-08-09T14:18:43.401Z,3.53
2022-08-09T14:24:54.042Z,2.05
2022-08-09T14:30:56.718Z,3.10
2022-08-09T14:37:06.543Z,2.70
2022-08-09T14:43:09.822Z,2.25
2022-08-09T14:49:19.010Z,2.13
2022-08-09T14:55:29.169Z,3.28
2022-08-09T15:01:34.635Z,3.25
2022-08-09T15:07:37.083Z,2.60
2022-08-09T15:13:56.433Z,2.70
2022-08-09T15:20:02.789Z,2.90
2022-08-09T15:26:09.219Z,2.92
2022-08-09T15:32:38.998Z,3.60
2022-08-09T15:38:41.548Z,3.80
2022-08-09T15:44:43.891Z,3.00
2022-08-09T15:50:48.416Z,3.00
2022-08-09T15:56:50.962Z,3.13
2022-08-09T16:02:56.805Z,2.97
2022-08-09T16:09:03.236Z,2.85
2022-08-09T16:16:04.504Z,3.80
2022-08-09T16:21:34.808Z,3.13
2022-08-09T16:27:38.473Z,3.50
2022-08-09T16:33:44.268Z,3.22
2022-08-09T16:39:54.643Z,3.08
2022-08-09T16:46:08.207Z,3.22
2022-08-09T16:52:13.062Z,3.20
2022-08-09T16:58:16.795Z,2.85
2022-08-09T17:04:26.114Z,3.45
2022-08-09T17:10:31.092Z,2.42
2022-08-09T17:16:38.227Z,3.53
2022-08-09T17:22:49.915Z,3.15
2022-08-09T17:28:52.871Z,4.07
2022-08-09T17:35:04.401Z,3.72
2022-08-09T17:41:14.223Z,4.38
2022-08-09T17:47:18.769Z,4.15
2022-08-09T17:53:26.220Z,4.85
2022-08-09T17:59:38.010Z,3.80
2022-08-09T18:05:43.946Z,3.78
2022-08-09T18:12:05.802Z,4.15
2022-08-09T18:18:08.922Z,4.38
2022-08-09T18:24:28.426Z,4.25
2022-08-09T18:30:42.346Z,3.40
2022-08-09T18:36:53.494Z,4.80
2022-08-09T18:42:55.886Z,4.05
2022-08-09T18:49:01.939Z,4.38
2022-08-09T18:55:05.811Z,3.75
2022-08-09T19:01:16.040Z,3.40
2022-08-09T19:07:18.336Z,3.67
2022-08-09T19:13:23.632Z,3.83
2022-08-09T19:19:43.604Z,3.83
2022-08-09T19:26:02.427Z,3.78
2022-08-09T19:32:08.508Z,2.83
2022-08-09T19:38:10.715Z,3.42
2022-08-09T19:44:12.725Z,4.07
2022-08-09T19:50:50.538Z,3.00
2022-08-09T19:56:42.990Z,4.32
2022-08-09T20:04:08.276Z,3.35
2022-08-09T20:09:45.263Z,4.00
2022-08-09T20:16:34.221Z,3.58
2022-08-09T20:22:00.059Z,3.33
2022-08-09T20:28:02.811Z,3.72
2022-08-09T20:34:06.039Z,4.13
2022-08-09T20:40:14.871Z,4.93
2022-08-09T20:46:42.293Z,4.30
2022-08-09T20:52:42.445Z,3.70
2022-08-09T20:58:47.701Z,3.85
2022-08-09T21:05:56.169Z,3.30
2022-08-09T21:18:22.877Z,2.67
2022-08-09T21:24:02.412Z,3.43
2022-08-09T21:30:05.360Z,2.40
2022-08-09T21:36:07.875Z,2.90
2022-08-09T21:42:13.871Z,2.63
2022-08-09T21:48:16.939Z,2.42
2022-08-09T21:54:19.426Z,2.67
2022-08-09T22:06:35.773Z,2.63
2022-08-09T22:12:39.355Z,2.85
2022-08-09T22:18:54.136Z,2.30
2022-08-09T22:26:07.584Z,2.47
2022-08-09T22:31:19.599Z,2.83
2022-08-09T22:37:24.404Z,2.20
2022-08-09T22:44:00.788Z,3.15
2022-08-09T22:49:52.596Z,2.92
2022-08-09T22:56:31.458Z,2.60
2022-08-09T23:02:20.241Z,2.17
2022-08-09T23:08:41.070Z,3.40
2022-08-09T23:14:43.416Z,2.65
2022-08-09T23:20:46.630Z,2.30
2022-08-09T23:26:48.723Z,2.55
2022-08-09T23:32:50.882Z,2.88
2022-08-09T23:38:53.222Z,2.55
2022-08-09T23:50:57.575Z,2.58
2022-08-09T23:57:00.042Z,2.70
